sensor_id;sensor_type;location;lat;lon;timestamp;P1;durP1;ratioP1;P2;durP2;ratioP2
49223;SDS011;35050;51.316;5.994;2023-09-30T00:01:00;7.60;;;3.35;;
49223;SDS011;35050;51.316;5.994;2023-09-30T00:03:26;7.18;;;3.08;;
49223;SDS011;35050;51.316;5.994;2023-09-30T00:05:53;9.60;;;3.63;;
49223;SDS011;35050;51.316;5.994;2023-09-30T00:08:19;11.40;;;3.33;;
49223;SDS011;35050;51.316;5.994;2023-09-30T00:10:44;8.40;;;3.30;;
49223;SDS011;35050;51.316;5.994;2023-09-30T00:13:11;8.43;;;3.22;;
49223;SDS011;35050;51.316;5.994;2023-09-30T00:15:37;6.25;;;3.30;;
49223;SDS011;35050;51.316;5.994;2023-09-30T00:18:03;7.75;;;3.13;;
49223;SDS011;35050;51.316;5.994;2023-09-30T00:20:30;8.82;;;3.70;;
49223;SDS011;35050;51.316;5.994;2023-09-30T00:22:56;7.07;;;3.92;;
49223;SDS011;35050;51.316;5.994;2023-09-30T00:25:21;8.00;;;3.50;;
49223;SDS011;35050;51.316;5.994;2023-09-30T00:27:47;9.13;;;3.80;;
49223;SDS011;35050;51.316;5.994;2023-09-30T00:30:13;7.97;;;3.63;;
49223;SDS011;35050;51.316;5.994;2023-09-30T00:32:39;6.85;;;3.63;;
49223;SDS011;35050;51.316;5.994;2023-09-30T00:35:05;7.70;;;4.15;;
49223;SDS011;35050;51.316;5.994;2023-09-30T00:37:39;5.95;;;4.10;;
49223;SDS011;35050;51.316;5.994;2023-09-30T00:40:05;10.15;;;4.47;;
49223;SDS011;35050;51.316;5.994;2023-09-30T00:42:31;12.85;;;5.15;;
49223;SDS011;35050;51.316;5.994;2023-09-30T00:44:57;12.60;;;3.95;;
49223;SDS011;35050;51.316;5.994;2023-09-30T00:47:23;8.00;;;3.95;;
49223;SDS011;35050;51.316;5.994;2023-09-30T00:49:49;6.88;;;3.60;;
49223;SDS011;35050;51.316;5.994;2023-09-30T00:52:15;8.35;;;4.03;;
49223;SDS011;35050;51.316;5.994;2023-09-30T00:54:43;8.43;;;4.38;;
49223;SDS011;35050;51.316;5.994;2023-09-30T00:57:09;6.93;;;4.10;;
49223;SDS011;35050;51.316;5.994;2023-09-30T00:59:36;7.28;;;4.45;;
49223;SDS011;35050;51.316;5.994;2023-09-30T01:02:02;8.07;;;4.20;;
49223;SDS011;35050;51.316;5.994;2023-09-30T01:04:30;6.13;;;3.70;;
49223;SDS011;35050;51.316;5.994;2023-09-30T01:06:56;7.10;;;4.25;;
49223;SDS011;35050;51.316;5.994;2023-09-30T01:09:24;7.32;;;4.13;;
49223;SDS011;35050;51.316;5.994;2023-09-30T01:11:50;8.02;;;3.95;;
49223;SDS011;35050;51.316;5.994;2023-09-30T01:14:26;7.63;;;4.35;;
49223;SDS011;35050;51.316;5.994;2023-09-30T01:16:53;7.30;;;4.43;;
49223;SDS011;35050;51.316;5.994;2023-09-30T01:19:19;8.43;;;4.45;;
49223;SDS011;35050;51.316;5.994;2023-09-30T01:21:44;7.22;;;4.18;;
49223;SDS011;35050;51.316;5.994;2023-09-30T01:24:16;7.88;;;4.43;;
49223;SDS011;35050;51.316;5.994;2023-09-30T01:26:42;7.78;;;4.43;;
49223;SDS011;35050;51.316;5.994;2023-09-30T01:29:08;7.10;;;4.35;;
49223;SDS011;35050;51.316;5.994;2023-09-30T01:31:37;9.05;;;4.50;;
49223;SDS011;35050;51.316;5.994;2023-09-30T01:34:04;8.00;;;4.20;;
49223;SDS011;35050;51.316;5.994;2023-09-30T01:36:30;8.38;;;3.95;;
49223;SDS011;35050;51.316;5.994;2023-09-30T01:38:56;7.20;;;4.30;;
49223;SDS011;35050;51.316;5.994;2023-09-30T01:41:22;7.70;;;4.07;;
49223;SDS011;35050;51.316;5.994;2023-09-30T01:43:48;6.35;;;4.03;;
49223;SDS011;35050;51.316;5.994;2023-09-30T01:46:14;6.95;;;4.30;;
49223;SDS011;35050;51.316;5.994;2023-09-30T01:48:39;5.78;;;4.03;;
49223;SDS011;35050;51.316;5.994;2023-09-30T01:51:05;6.55;;;4.00;;
49223;SDS011;35050;51.316;5.994;2023-09-30T01:53:31;5.10;;;3.80;;
49223;SDS011;35050;51.316;5.994;2023-09-30T01:55:57;6.53;;;4.07;;
49223;SDS011;35050;51.316;5.994;2023-09-30T01:58:23;5.13;;;3.97;;
49223;SDS011;35050;51.316;5.994;2023-09-30T02:00:49;5.97;;;3.83;;
49223;SDS011;35050;51.316;5.994;2023-09-30T02:03:15;7.07;;;3.80;;
49223;SDS011;35050;51.316;5.994;2023-09-30T02:05:42;6.90;;;4.32;;
49223;SDS011;35050;51.316;5.994;2023-09-30T02:08:08;8.23;;;4.22;;
49223;SDS011;35050;51.316;5.994;2023-09-30T02:10:33;8.27;;;3.97;;
49223;SDS011;35050;51.316;5.994;2023-09-30T02:12:59;5.90;;;4.25;;
49223;SDS011;35050;51.316;5.994;2023-09-30T02:15:25;5.50;;;3.72;;
49223;SDS011;35050;51.316;5.994;2023-09-30T02:17:51;6.90;;;4.10;;
49223;SDS011;35050;51.316;5.994;2023-09-30T02:20:17;5.88;;;4.53;;
49223;SDS011;35050;51.316;5.994;2023-09-30T02:22:46;6.95;;;3.90;;
49223;SDS011;35050;51.316;5.994;2023-09-30T02:25:12;7.20;;;4.78;;
49223;SDS011;35050;51.316;5.994;2023-09-30T02:27:39;6.78;;;4.30;;
49223;SDS011;35050;51.316;5.994;2023-09-30T02:30:06;7.88;;;4.15;;
49223;SDS011;35050;51.316;5.994;2023-09-30T02:32:33;7.43;;;4.53;;
49223;SDS011;35050;51.316;5.994;2023-09-30T02:34:59;4.97;;;4.03;;
49223;SDS011;35050;51.316;5.994;2023-09-30T02:37:24;8.57;;;4.18;;
49223;SDS011;35050;51.316;5.994;2023-09-30T02:39:50;6.78;;;4.78;;
49223;SDS011;35050;51.316;5.994;2023-09-30T02:42:16;6.55;;;4.57;;
49223;SDS011;35050;51.316;5.994;2023-09-30T02:44:42;8.10;;;4.90;;
49223;SDS011;35050;51.316;5.994;2023-09-30T02:47:08;8.65;;;4.72;;
49223;SDS011;35050;51.316;5.994;2023-09-30T02:49:34;9.68;;;4.90;;
49223;SDS011;35050;51.316;5.994;2023-09-30T02:52:00;5.78;;;4.68;;
49223;SDS011;35050;51.316;5.994;2023-09-30T02:54:26;5.60;;;4.25;;
49223;SDS011;35050;51.316;5.994;2023-09-30T02:56:52;4.93;;;3.70;;
49223;SDS011;35050;51.316;5.994;2023-09-30T02:59:19;3.72;;;3.33;;
49223;SDS011;35050;51.316;5.994;2023-09-30T03:01:47;10.30;;;4.03;;
49223;SDS011;35050;51.316;5.994;2023-09-30T03:04:13;16.17;;;4.05;;
49223;SDS011;35050;51.316;5.994;2023-09-30T03:06:38;5.68;;;3.75;;
49223;SDS011;35050;51.316;5.994;2023-09-30T03:09:04;7.88;;;4.32;;
49223;SDS011;35050;51.316;5.994;2023-09-30T03:11:30;4.88;;;3.83;;
49223;SDS011;35050;51.316;5.994;2023-09-30T03:13:56;4.18;;;3.78;;
49223;SDS011;35050;51.316;5.994;2023-09-30T03:16:23;4.93;;;3.70;;
49223;SDS011;35050;51.316;5.994;2023-09-30T03:18:49;6.28;;;3.53;;
49223;SDS011;35050;51.316;5.994;2023-09-30T03:21:15;8.38;;;4.10;;
49223;SDS011;35050;51.316;5.994;2023-09-30T03:23:42;5.13;;;3.78;;
49223;SDS011;35050;51.316;5.994;2023-09-30T03:26:08;5.22;;;4.20;;
49223;SDS011;35050;51.316;5.994;2023-09-30T03:28:38;5.65;;;4.13;;
49223;SDS011;35050;51.316;5.994;2023-09-30T03:31:07;4.22;;;3.83;;
49223;SDS011;35050;51.316;5.994;2023-09-30T03:33:33;6.65;;;3.97;;
49223;SDS011;35050;51.316;5.994;2023-09-30T03:35:59;4.55;;;4.15;;
49223;SDS011;35050;51.316;5.994;2023-09-30T03:38:25;4.80;;;4.40;;
49223;SDS011;35050;51.316;5.994;2023-09-30T03:40:51;8.27;;;4.47;;
49223;SDS011;35050;51.316;5.994;2023-09-30T03:43:19;10.60;;;4.53;;
49223;SDS011;35050;51.316;5.994;2023-09-30T03:45:46;4.95;;;4.53;;
49223;SDS011;35050;51.316;5.994;2023-09-30T03:48:12;4.68;;;4.22;;
49223;SDS011;35050;51.316;5.994;2023-09-30T03:50:37;8.30;;;4.25;;
49223;SDS011;35050;51.316;5.994;2023-09-30T03:53:04;4.60;;;4.20;;
49223;SDS011;35050;51.316;5.994;2023-09-30T03:55:32;5.20;;;4.70;;
49223;SDS011;35050;51.316;5.994;2023-09-30T03:57:58;7.95;;;4.43;;
49223;SDS011;35050;51.316;5.994;2023-09-30T04:00:24;4.90;;;4.40;;
49223;SDS011;35050;51.316;5.994;2023-09-30T04:02:49;5.18;;;4.68;;
49223;SDS011;35050;51.316;5.994;2023-09-30T04:05:20;5.20;;;4.38;;
49223;SDS011;35050;51.316;5.994;2023-09-30T04:07:54;5.80;;;4.68;;
49223;SDS011;35050;51.316;5.994;2023-09-30T04:10:20;9.82;;;4.53;;
49223;SDS011;35050;51.316;5.994;2023-09-30T04:12:47;4.78;;;4.28;;
49223;SDS011;35050;51.316;5.994;2023-09-30T04:15:13;4.90;;;4.45;;
49223;SDS011;35050;51.316;5.994;2023-09-30T04:17:39;4.20;;;3.80;;
49223;SDS011;35050;51.316;5.994;2023-09-30T04:20:05;4.38;;;3.92;;
49223;SDS011;35050;51.316;5.994;2023-09-30T04:22:35;4.45;;;4.00;;
49223;SDS011;35050;51.316;5.994;2023-09-30T04:25:01;4.35;;;3.95;;
49223;SDS011;35050;51.316;5.994;2023-09-30T04:27:27;5.35;;;4.30;;
49223;SDS011;35050;51.316;5.994;2023-09-30T04:29:53;6.95;;;4.63;;
49223;SDS011;35050;51.316;5.994;2023-09-30T04:32:18;5.60;;;4.47;;
49223;SDS011;35050;51.316;5.994;2023-09-30T04:34:44;5.22;;;4.72;;
49223;SDS011;35050;51.316;5.994;2023-09-30T04:37:12;5.60;;;5.07;;
49223;SDS011;35050;51.316;5.994;2023-09-30T04:39:40;5.05;;;4.55;;
49223;SDS011;35050;51.316;5.994;2023-09-30T04:42:06;5.30;;;4.70;;
49223;SDS011;35050;51.316;5.994;2023-09-30T04:44:35;6.28;;;5.03;;
49223;SDS011;35050;51.316;5.994;2023-09-30T04:47:02;5.88;;;5.18;;
49223;SDS011;35050;51.316;5.994;2023-09-30T04:49:29;7.63;;;5.60;;
49223;SDS011;35050;51.316;5.994;2023-09-30T04:51:55;6.88;;;5.75;;
49223;SDS011;35050;51.316;5.994;2023-09-30T04:54:21;9.57;;;6.00;;
49223;SDS011;35050;51.316;5.994;2023-09-30T04:56:47;8.73;;;5.70;;
49223;SDS011;35050;51.316;5.994;2023-09-30T04:59:12;8.10;;;6.05;;
49223;SDS011;35050;51.316;5.994;2023-09-30T05:01:39;7.32;;;5.72;;
49223;SDS011;35050;51.316;5.994;2023-09-30T05:04:04;7.30;;;6.47;;
49223;SDS011;35050;51.316;5.994;2023-09-30T05:06:30;7.30;;;5.95;;
49223;SDS011;35050;51.316;5.994;2023-09-30T05:08:57;8.10;;;5.90;;
49223;SDS011;35050;51.316;5.994;2023-09-30T05:11:24;11.90;;;7.80;;
49223;SDS011;35050;51.316;5.994;2023-09-30T05:13:49;6.57;;;5.90;;
49223;SDS011;35050;51.316;5.994;2023-09-30T05:16:16;10.45;;;6.47;;
49223;SDS011;35050;51.316;5.994;2023-09-30T05:18:42;8.10;;;6.63;;
49223;SDS011;35050;51.316;5.994;2023-09-30T05:21:08;9.70;;;5.60;;
49223;SDS011;35050;51.316;5.994;2023-09-30T05:23:35;6.78;;;5.93;;
49223;SDS011;35050;51.316;5.994;2023-09-30T05:26:01;8.32;;;6.00;;
49223;SDS011;35050;51.316;5.994;2023-09-30T05:28:27;8.07;;;6.35;;
49223;SDS011;35050;51.316;5.994;2023-09-30T05:30:53;6.85;;;6.03;;
49223;SDS011;35050;51.316;5.994;2023-09-30T05:33:18;7.72;;;6.05;;
49223;SDS011;35050;51.316;5.994;2023-09-30T05:35:44;7.43;;;5.93;;
49223;SDS011;35050;51.316;5.994;2023-09-30T05:38:09;6.95;;;5.70;;
49223;SDS011;35050;51.316;5.994;2023-09-30T05:40:35;8.32;;;6.63;;
49223;SDS011;35050;51.316;5.994;2023-09-30T05:43:01;6.10;;;5.45;;
49223;SDS011;35050;51.316;5.994;2023-09-30T05:45:30;10.00;;;5.70;;
49223;SDS011;35050;51.316;5.994;2023-09-30T05:47:59;6.50;;;5.72;;
49223;SDS011;35050;51.316;5.994;2023-09-30T05:50:28;6.03;;;5.38;;
49223;SDS011;35050;51.316;5.994;2023-09-30T05:52:54;5.93;;;5.00;;
49223;SDS011;35050;51.316;5.994;2023-09-30T05:55:20;6.45;;;5.78;;
49223;SDS011;35050;51.316;5.994;2023-09-30T05:57:47;6.70;;;5.60;;
49223;SDS011;35050;51.316;5.994;2023-09-30T06:00:15;6.53;;;5.57;;
49223;SDS011;35050;51.316;5.994;2023-09-30T06:02:59;11.05;;;5.78;;
49223;SDS011;35050;51.316;5.994;2023-09-30T06:05:25;7.35;;;5.68;;
49223;SDS011;35050;51.316;5.994;2023-09-30T06:07:51;6.80;;;5.95;;
49223;SDS011;35050;51.316;5.994;2023-09-30T06:10:19;7.60;;;5.72;;
49223;SDS011;35050;51.316;5.994;2023-09-30T06:12:48;6.78;;;5.97;;
49223;SDS011;35050;51.316;5.994;2023-09-30T06:15:15;5.85;;;5.18;;
49223;SDS011;35050;51.316;5.994;2023-09-30T06:17:46;5.95;;;5.35;;
49223;SDS011;35050;51.316;5.994;2023-09-30T06:20:12;6.30;;;5.55;;
49223;SDS011;35050;51.316;5.994;2023-09-30T06:22:43;6.95;;;5.57;;
49223;SDS011;35050;51.316;5.994;2023-09-30T06:25:14;7.15;;;6.10;;
49223;SDS011;35050;51.316;5.994;2023-09-30T06:27:43;6.15;;;5.55;;
49223;SDS011;35050;51.316;5.994;2023-09-30T06:30:10;6.95;;;6.25;;
49223;SDS011;35050;51.316;5.994;2023-09-30T06:32:36;6.75;;;6.05;;
49223;SDS011;35050;51.316;5.994;2023-09-30T06:35:02;8.27;;;6.57;;
49223;SDS011;35050;51.316;5.994;2023-09-30T06:37:31;7.32;;;5.60;;
49223;SDS011;35050;51.316;5.994;2023-09-30T06:39:57;8.45;;;6.18;;
49223;SDS011;35050;51.316;5.994;2023-09-30T06:42:23;6.03;;;5.38;;
49223;SDS011;35050;51.316;5.994;2023-09-30T06:44:49;8.18;;;6.40;;
49223;SDS011;35050;51.316;5.994;2023-09-30T06:47:15;6.18;;;5.57;;
49223;SDS011;35050;51.316;5.994;2023-09-30T06:49:41;7.60;;;5.88;;
49223;SDS011;35050;51.316;5.994;2023-09-30T06:52:07;9.75;;;6.25;;
49223;SDS011;35050;51.316;5.994;2023-09-30T06:54:32;11.75;;;6.82;;
49223;SDS011;35050;51.316;5.994;2023-09-30T06:56:58;8.02;;;6.45;;
49223;SDS011;35050;51.316;5.994;2023-09-30T06:59:25;7.22;;;6.47;;
49223;SDS011;35050;51.316;5.994;2023-09-30T07:01:51;7.85;;;6.05;;
49223;SDS011;35050;51.316;5.994;2023-09-30T07:04:17;10.40;;;6.30;;
49223;SDS011;35050;51.316;5.994;2023-09-30T07:06:42;9.90;;;7.05;;
49223;SDS011;35050;51.316;5.994;2023-09-30T07:09:08;8.23;;;6.47;;
49223;SDS011;35050;51.316;5.994;2023-09-30T07:11:37;11.93;;;6.40;;
49223;SDS011;35050;51.316;5.994;2023-09-30T07:14:03;9.65;;;6.90;;
49223;SDS011;35050;51.316;5.994;2023-09-30T07:16:28;9.25;;;6.65;;
49223;SDS011;35050;51.316;5.994;2023-09-30T07:18:54;10.82;;;7.47;;
49223;SDS011;35050;51.316;5.994;2023-09-30T07:21:20;9.10;;;6.85;;
49223;SDS011;35050;51.316;5.994;2023-09-30T07:23:46;9.40;;;7.00;;
49223;SDS011;35050;51.316;5.994;2023-09-30T07:26:13;11.20;;;7.80;;
49223;SDS011;35050;51.316;5.994;2023-09-30T07:28:39;6.45;;;5.00;;
49223;SDS011;35050;51.316;5.994;2023-09-30T07:31:05;8.82;;;6.35;;
49223;SDS011;35050;51.316;5.994;2023-09-30T07:33:31;10.50;;;7.97;;
49223;SDS011;35050;51.316;5.994;2023-09-30T07:35:57;9.65;;;7.32;;
49223;SDS011;35050;51.316;5.994;2023-09-30T07:38:23;11.73;;;7.47;;
49223;SDS011;35050;51.316;5.994;2023-09-30T07:40:48;10.38;;;7.20;;
49223;SDS011;35050;51.316;5.994;2023-09-30T07:43:14;9.85;;;7.10;;
49223;SDS011;35050;51.316;5.994;2023-09-30T07:45:40;13.38;;;8.15;;
49223;SDS011;35050;51.316;5.994;2023-09-30T07:48:08;14.95;;;9.43;;
49223;SDS011;35050;51.316;5.994;2023-09-30T07:50:35;11.77;;;8.05;;
49223;SDS011;35050;51.316;5.994;2023-09-30T07:53:01;11.00;;;8.27;;
49223;SDS011;35050;51.316;5.994;2023-09-30T07:55:26;11.90;;;8.82;;
49223;SDS011;35050;51.316;5.994;2023-09-30T07:57:52;9.52;;;7.10;;
49223;SDS011;35050;51.316;5.994;2023-09-30T08:00:17;12.27;;;8.88;;
49223;SDS011;35050;51.316;5.994;2023-09-30T08:02:46;10.98;;;8.80;;
49223;SDS011;35050;51.316;5.994;2023-09-30T08:05:12;13.25;;;9.15;;
49223;SDS011;35050;51.316;5.994;2023-09-30T08:07:38;13.23;;;9.60;;
49223;SDS011;35050;51.316;5.994;2023-09-30T08:10:04;12.65;;;9.30;;
49223;SDS011;35050;51.316;5.994;2023-09-30T08:12:31;13.90;;;9.77;;
49223;SDS011;35050;51.316;5.994;2023-09-30T08:14:57;13.00;;;8.98;;
49223;SDS011;35050;51.316;5.994;2023-09-30T08:17:23;12.57;;;8.82;;
49223;SDS011;35050;51.316;5.994;2023-09-30T08:19:49;10.93;;;8.32;;
49223;SDS011;35050;51.316;5.994;2023-09-30T08:22:14;21.05;;;9.93;;
49223;SDS011;35050;51.316;5.994;2023-09-30T08:24:40;12.63;;;9.77;;
49223;SDS011;35050;51.316;5.994;2023-09-30T08:27:05;12.23;;;9.00;;
49223;SDS011;35050;51.316;5.994;2023-09-30T08:29:34;12.63;;;8.75;;
49223;SDS011;35050;51.316;5.994;2023-09-30T08:32:03;13.95;;;9.32;;
49223;SDS011;35050;51.316;5.994;2023-09-30T08:34:29;12.05;;;8.10;;
49223;SDS011;35050;51.316;5.994;2023-09-30T08:36:55;11.73;;;9.10;;
49223;SDS011;35050;51.316;5.994;2023-09-30T08:39:21;11.30;;;8.15;;
49223;SDS011;35050;51.316;5.994;2023-09-30T08:41:48;9.43;;;7.40;;
49223;SDS011;35050;51.316;5.994;2023-09-30T08:44:15;13.13;;;8.88;;
49223;SDS011;35050;51.316;5.994;2023-09-30T08:46:41;10.32;;;8.05;;
49223;SDS011;35050;51.316;5.994;2023-09-30T08:49:07;12.43;;;8.43;;
49223;SDS011;35050;51.316;5.994;2023-09-30T08:51:34;12.90;;;9.13;;
49223;SDS011;35050;51.316;5.994;2023-09-30T08:54:00;11.50;;;8.10;;
49223;SDS011;35050;51.316;5.994;2023-09-30T08:56:29;12.05;;;8.27;;
49223;SDS011;35050;51.316;5.994;2023-09-30T08:58:58;11.30;;;7.63;;
49223;SDS011;35050;51.316;5.994;2023-09-30T09:01:26;12.73;;;9.15;;
49223;SDS011;35050;51.316;5.994;2023-09-30T09:03:52;10.25;;;8.10;;
49223;SDS011;35050;51.316;5.994;2023-09-30T09:06:20;12.75;;;8.40;;
49223;SDS011;35050;51.316;5.994;2023-09-30T09:08:46;10.77;;;7.55;;
49223;SDS011;35050;51.316;5.994;2023-09-30T09:11:12;9.70;;;7.35;;
49223;SDS011;35050;51.316;5.994;2023-09-30T09:13:51;9.27;;;6.72;;
49223;SDS011;35050;51.316;5.994;2023-09-30T09:16:21;11.90;;;8.00;;
49223;SDS011;35050;51.316;5.994;2023-09-30T09:18:48;9.30;;;7.38;;
49223;SDS011;35050;51.316;5.994;2023-09-30T09:21:19;10.18;;;6.97;;
49223;SDS011;35050;51.316;5.994;2023-09-30T09:28:58;10.70;;;7.55;;
49223;SDS011;35050;51.316;5.994;2023-09-30T09:31:27;9.65;;;6.15;;
49223;SDS011;35050;51.316;5.994;2023-09-30T09:33:54;10.32;;;6.50;;
49223;SDS011;35050;51.316;5.994;2023-09-30T09:36:20;13.85;;;7.18;;
49223;SDS011;35050;51.316;5.994;2023-09-30T09:38:48;10.80;;;6.70;;
49223;SDS011;35050;51.316;5.994;2023-09-30T09:41:15;12.32;;;7.40;;
49223;SDS011;35050;51.316;5.994;2023-09-30T09:43:41;12.32;;;7.00;;
49223;SDS011;35050;51.316;5.994;2023-09-30T09:46:08;9.63;;;6.55;;
49223;SDS011;35050;51.316;5.994;2023-09-30T09:48:35;7.80;;;6.20;;
49223;SDS011;35050;51.316;5.994;2023-09-30T09:51:02;8.27;;;5.95;;
49223;SDS011;35050;51.316;5.994;2023-09-30T09:53:30;8.90;;;5.50;;
49223;SDS011;35050;51.316;5.994;2023-09-30T09:55:59;8.85;;;5.72;;
49223;SDS011;35050;51.316;5.994;2023-09-30T09:58:25;13.73;;;7.50;;
49223;SDS011;35050;51.316;5.994;2023-09-30T10:00:56;8.50;;;6.95;;
49223;SDS011;35050;51.316;5.994;2023-09-30T10:03:23;12.10;;;7.70;;
49223;SDS011;35050;51.316;5.994;2023-09-30T10:05:49;15.27;;;8.43;;
49223;SDS011;35050;51.316;5.994;2023-09-30T10:08:15;9.05;;;7.00;;
49223;SDS011;35050;51.316;5.994;2023-09-30T10:10:43;17.02;;;7.00;;
49223;SDS011;35050;51.316;5.994;2023-09-30T10:13:33;10.15;;;7.32;;
49223;SDS011;35050;51.316;5.994;2023-09-30T10:19:17;11.02;;;6.00;;
49223;SDS011;35050;51.316;5.994;2023-09-30T10:24:45;11.38;;;6.72;;
49223;SDS011;35050;51.316;5.994;2023-09-30T10:30:05;10.27;;;6.13;;
49223;SDS011;35050;51.316;5.994;2023-09-30T10:37:46;9.65;;;6.93;;
49223;SDS011;35050;51.316;5.994;2023-09-30T10:40:28;8.32;;;6.38;;
49223;SDS011;35050;51.316;5.994;2023-09-30T10:42:57;10.20;;;6.55;;
49223;SDS011;35050;51.316;5.994;2023-09-30T10:48:49;11.32;;;6.80;;
49223;SDS011;35050;51.316;5.994;2023-09-30T10:51:17;9.15;;;7.00;;
49223;SDS011;35050;51.316;5.994;2023-09-30T10:53:50;7.93;;;6.15;;
49223;SDS011;35050;51.316;5.994;2023-09-30T10:56:17;10.30;;;6.80;;
49223;SDS011;35050;51.316;5.994;2023-09-30T10:58:47;10.20;;;6.82;;
49223;SDS011;35050;51.316;5.994;2023-09-30T11:01:18;9.65;;;6.47;;
49223;SDS011;35050;51.316;5.994;2023-09-30T11:03:47;7.90;;;5.85;;
49223;SDS011;35050;51.316;5.994;2023-09-30T11:06:17;10.52;;;6.40;;
49223;SDS011;35050;51.316;5.994;2023-09-30T11:08:55;10.23;;;6.45;;
49223;SDS011;35050;51.316;5.994;2023-09-30T11:11:39;8.07;;;5.13;;
49223;SDS011;35050;51.316;5.994;2023-09-30T11:14:27;6.80;;;4.63;;
49223;SDS011;35050;51.316;5.994;2023-09-30T11:16:55;8.82;;;5.97;;
49223;SDS011;35050;51.316;5.994;2023-09-30T11:19:23;11.73;;;5.38;;
49223;SDS011;35050;51.316;5.994;2023-09-30T11:21:49;10.25;;;5.45;;
49223;SDS011;35050;51.316;5.994;2023-09-30T11:24:20;9.65;;;5.57;;
49223;SDS011;35050;51.316;5.994;2023-09-30T11:26:46;8.20;;;5.55;;
49223;SDS011;35050;51.316;5.994;2023-09-30T11:29:13;6.53;;;4.68;;
49223;SDS011;35050;51.316;5.994;2023-09-30T11:31:44;6.13;;;4.22;;
49223;SDS011;35050;51.316;5.994;2023-09-30T11:34:12;8.82;;;5.15;;
49223;SDS011;35050;51.316;5.994;2023-09-30T11:36:39;9.23;;;5.53;;
49223;SDS011;35050;51.316;5.994;2023-09-30T11:39:08;8.15;;;5.15;;
49223;SDS011;35050;51.316;5.994;2023-09-30T11:44:09;6.75;;;3.60;;
49223;SDS011;35050;51.316;5.994;2023-09-30T11:46:50;6.55;;;3.90;;
49223;SDS011;35050;51.316;5.994;2023-09-30T11:51:53;8.45;;;4.50;;
49223;SDS011;35050;51.316;5.994;2023-09-30T11:54:20;7.15;;;4.70;;
49223;SDS011;35050;51.316;5.994;2023-09-30T11:56:47;7.55;;;4.43;;
49223;SDS011;35050;51.316;5.994;2023-09-30T11:59:13;7.88;;;4.30;;
49223;SDS011;35050;51.316;5.994;2023-09-30T12:01:38;6.80;;;4.38;;
49223;SDS011;35050;51.316;5.994;2023-09-30T12:04:04;7.18;;;4.50;;
49223;SDS011;35050;51.316;5.994;2023-09-30T12:06:31;7.30;;;4.20;;
49223;SDS011;35050;51.316;5.994;2023-09-30T12:08:59;6.38;;;3.92;;
49223;SDS011;35050;51.316;5.994;2023-09-30T12:11:25;6.03;;;4.25;;
49223;SDS011;35050;51.316;5.994;2023-09-30T12:13:50;7.95;;;4.97;;
49223;SDS011;35050;51.316;5.994;2023-09-30T12:16:17;7.88;;;4.85;;
49223;SDS011;35050;51.316;5.994;2023-09-30T12:18:43;9.05;;;4.30;;
49223;SDS011;35050;51.316;5.994;2023-09-30T12:21:10;8.13;;;4.90;;
49223;SDS011;35050;51.316;5.994;2023-09-30T12:23:36;7.97;;;5.00;;
49223;SDS011;35050;51.316;5.994;2023-09-30T12:26:03;7.93;;;4.55;;
49223;SDS011;35050;51.316;5.994;2023-09-30T12:28:32;7.53;;;4.70;;
49223;SDS011;35050;51.316;5.994;2023-09-30T12:30:58;5.45;;;3.65;;
49223;SDS011;35050;51.316;5.994;2023-09-30T12:33:27;6.38;;;4.00;;
49223;SDS011;35050;51.316;5.994;2023-09-30T12:35:53;5.43;;;3.20;;
49223;SDS011;35050;51.316;5.994;2023-09-30T12:38:19;7.45;;;3.22;;
49223;SDS011;35050;51.316;5.994;2023-09-30T12:40:44;4.97;;;3.22;;
49223;SDS011;35050;51.316;5.994;2023-09-30T12:43:10;4.78;;;3.10;;
49223;SDS011;35050;51.316;5.994;2023-09-30T12:45:35;4.60;;;3.00;;
49223;SDS011;35050;51.316;5.994;2023-09-30T12:48:03;5.93;;;3.25;;
49223;SDS011;35050;51.316;5.994;2023-09-30T12:50:29;5.30;;;3.63;;
49223;SDS011;35050;51.316;5.994;2023-09-30T12:52:55;6.78;;;3.50;;
49223;SDS011;35050;51.316;5.994;2023-09-30T12:55:20;6.60;;;3.40;;
49223;SDS011;35050;51.316;5.994;2023-09-30T12:57:46;7.05;;;3.50;;
49223;SDS011;35050;51.316;5.994;2023-09-30T13:00:12;5.45;;;3.25;;
49223;SDS011;35050;51.316;5.994;2023-09-30T13:02:40;5.55;;;3.20;;
49223;SDS011;35050;51.316;5.994;2023-09-30T13:05:06;4.55;;;2.78;;
49223;SDS011;35050;51.316;5.994;2023-09-30T13:07:32;4.78;;;2.80;;
49223;SDS011;35050;51.316;5.994;2023-09-30T13:09:58;5.70;;;3.30;;
49223;SDS011;35050;51.316;5.994;2023-09-30T13:12:26;6.70;;;3.55;;
49223;SDS011;35050;51.316;5.994;2023-09-30T13:14:52;5.82;;;3.30;;
49223;SDS011;35050;51.316;5.994;2023-09-30T13:17:21;7.10;;;3.17;;
49223;SDS011;35050;51.316;5.994;2023-09-30T13:19:48;4.60;;;3.20;;
49223;SDS011;35050;51.316;5.994;2023-09-30T13:22:14;5.53;;;2.63;;
49223;SDS011;35050;51.316;5.994;2023-09-30T13:24:41;4.38;;;2.75;;
49223;SDS011;35050;51.316;5.994;2023-09-30T13:27:07;4.18;;;2.30;;
49223;SDS011;35050;51.316;5.994;2023-09-30T13:29:33;5.72;;;3.00;;
49223;SDS011;35050;51.316;5.994;2023-09-30T13:31:59;4.93;;;2.45;;
49223;SDS011;35050;51.316;5.994;2023-09-30T13:34:25;7.47;;;2.80;;
49223;SDS011;35050;51.316;5.994;2023-09-30T13:36:50;5.55;;;3.03;;
49223;SDS011;35050;51.316;5.994;2023-09-30T13:39:16;4.05;;;2.60;;
49223;SDS011;35050;51.316;5.994;2023-09-30T13:41:43;3.88;;;2.25;;
49223;SDS011;35050;51.316;5.994;2023-09-30T13:44:08;5.53;;;2.42;;
49223;SDS011;35050;51.316;5.994;2023-09-30T13:46:35;5.18;;;2.70;;
49223;SDS011;35050;51.316;5.994;2023-09-30T13:49:01;4.50;;;2.47;;
49223;SDS011;35050;51.316;5.994;2023-09-30T13:51:27;4.97;;;3.00;;
49223;SDS011;35050;51.316;5.994;2023-09-30T13:53:52;4.60;;;2.47;;
49223;SDS011;35050;51.316;5.994;2023-09-30T13:56:18;4.82;;;2.50;;
49223;SDS011;35050;51.316;5.994;2023-09-30T13:58:44;4.55;;;3.10;;
49223;SDS011;35050;51.316;5.994;2023-09-30T14:01:12;4.75;;;2.67;;
49223;SDS011;35050;51.316;5.994;2023-09-30T14:03:38;3.75;;;2.50;;
49223;SDS011;35050;51.316;5.994;2023-09-30T14:06:09;3.90;;;2.75;;
49223;SDS011;35050;51.316;5.994;2023-09-30T14:08:38;4.65;;;2.92;;
49223;SDS011;35050;51.316;5.994;2023-09-30T14:11:04;4.95;;;2.88;;
49223;SDS011;35050;51.316;5.994;2023-09-30T14:13:30;7.82;;;2.80;;
49223;SDS011;35050;51.316;5.994;2023-09-30T14:15:56;7.05;;;2.53;;
49223;SDS011;35050;51.316;5.994;2023-09-30T14:18:21;4.05;;;2.30;;
49223;SDS011;35050;51.316;5.994;2023-09-30T14:20:47;5.22;;;3.00;;
49223;SDS011;35050;51.316;5.994;2023-09-30T14:23:13;4.53;;;2.70;;
49223;SDS011;35050;51.316;5.994;2023-09-30T14:25:39;3.65;;;2.10;;
49223;SDS011;35050;51.316;5.994;2023-09-30T14:28:07;5.05;;;2.95;;
49223;SDS011;35050;51.316;5.994;2023-09-30T14:30:33;4.05;;;2.50;;
49223;SDS011;35050;51.316;5.994;2023-09-30T14:32:59;4.03;;;2.30;;
49223;SDS011;35050;51.316;5.994;2023-09-30T14:35:25;5.25;;;2.42;;
49223;SDS011;35050;51.316;5.994;2023-09-30T14:37:50;2.97;;;2.05;;
49223;SDS011;35050;51.316;5.994;2023-09-30T14:40:19;2.83;;;1.90;;
49223;SDS011;35050;51.316;5.994;2023-09-30T14:42:45;4.15;;;2.40;;
49223;SDS011;35050;51.316;5.994;2023-09-30T14:45:11;6.03;;;2.65;;
49223;SDS011;35050;51.316;5.994;2023-09-30T14:47:37;3.85;;;2.33;;
49223;SDS011;35050;51.316;5.994;2023-09-30T14:50:05;3.78;;;2.33;;
49223;SDS011;35050;51.316;5.994;2023-09-30T14:52:32;3.03;;;2.00;;
49223;SDS011;35050;51.316;5.994;2023-09-30T14:54:58;3.28;;;2.10;;
49223;SDS011;35050;51.316;5.994;2023-09-30T14:57:25;5.05;;;2.60;;
49223;SDS011;35050;51.316;5.994;2023-09-30T14:59:50;3.45;;;2.00;;
49223;SDS011;35050;51.316;5.994;2023-09-30T15:02:16;3.65;;;2.25;;
49223;SDS011;35050;51.316;5.994;2023-09-30T15:04:42;3.58;;;1.90;;
49223;SDS011;35050;51.316;5.994;2023-09-30T15:07:08;5.10;;;2.08;;
49223;SDS011;35050;51.316;5.994;2023-09-30T15:09:36;6.35;;;2.25;;
49223;SDS011;35050;51.316;5.994;2023-09-30T15:12:03;4.82;;;2.10;;